Webcam Flughafen St.Gallen-Altenrhein

Live-Bilder und Zeitraffer LSZR / ACH.

 

Live aus Altenrhein
LIVE
LSZR 191520Z VRB02KT 9999 FEW025 BKN033 05/02 Q1017 NOSIG RMK K
Zeitraffer heute
2019-11-19 00:14:36
LSZR 182250Z AUTO 10002KT CAVOK 03/02 Q1016